sensor_id;sensor_type;location;lat;lon;timestamp;pressure;altitude;pressure_sealevel;temperature;humidity
13486;BME280;6815;59.336;17.998;2024-01-06T00:01:39;91914.69;;;-145.37;78.85
13486;BME280;6815;59.336;17.998;2024-01-06T00:04:04;92072.22;;;-145.37;79.42
13486;BME280;6815;59.336;17.998;2024-01-06T00:06:30;92033.84;;;-145.37;78.79
13486;BME280;6815;59.336;17.998;2024-01-06T00:08:55;92078.28;;;-145.37;78.64
13486;BME280;6815;59.336;17.998;2024-01-06T00:11:22;92100.50;;;-145.37;79.25
13486;BME280;6815;59.336;17.998;2024-01-06T00:13:47;92088.38;;;-145.37;79.15
13486;BME280;6815;59.336;17.998;2024-01-06T00:16:17;92060.09;;;-145.37;78.74
13486;BME280;6815;59.336;17.998;2024-01-06T00:18:43;92029.81;;;-145.37;78.79
13486;BME280;6815;59.336;17.998;2024-01-06T00:21:08;92092.41;;;-145.37;78.89
13486;BME280;6815;59.336;17.998;2024-01-06T00:23:34;92070.19;;;-145.37;78.81
13486;BME280;6815;59.336;17.998;2024-01-06T00:25:59;92078.28;;;-145.37;78.01
13486;BME280;6815;59.336;17.998;2024-01-06T00:28:25;92078.28;;;-145.37;77.44
13486;BME280;6815;59.336;17.998;2024-01-06T00:30:51;92080.31;;;-145.37;77.60
13486;BME280;6815;59.336;17.998;2024-01-06T00:33:16;92064.16;;;-145.37;78.44
13486;BME280;6815;59.336;17.998;2024-01-06T00:35:41;92080.31;;;-145.37;78.31
13486;BME280;6815;59.336;17.998;2024-01-06T00:38:07;92088.38;;;-145.37;78.28
13486;BME280;6815;59.336;17.998;2024-01-06T00:40:32;92120.69;;;-145.37;78.26
13486;BME280;6815;59.336;17.998;2024-01-06T00:42:58;92078.28;;;-145.37;78.26
13486;BME280;6815;59.336;17.998;2024-01-06T00:45:24;92064.16;;;-145.37;78.13
13486;BME280;6815;59.336;17.998;2024-01-06T00:47:50;92023.75;;;-145.37;78.51
13486;BME280;6815;59.336;17.998;2024-01-06T00:50:17;92013.66;;;-145.37;78.41
13486;BME280;6815;59.336;17.998;2024-01-06T00:52:44;92080.31;;;-145.37;77.85
13486;BME280;6815;59.336;17.998;2024-01-06T00:55:10;91949.03;;;-145.37;79.25
13486;BME280;6815;59.336;17.998;2024-01-06T00:57:35;92060.09;;;-145.37;78.63
13486;BME280;6815;59.336;17.998;2024-01-06T01:00:01;92066.16;;;-145.37;78.33
13486;BME280;6815;59.336;17.998;2024-01-06T01:02:26;92136.84;;;-145.37;77.93
13486;BME280;6815;59.336;17.998;2024-01-06T01:04:52;92100.50;;;-145.37;78.09
13486;BME280;6815;59.336;17.998;2024-01-06T01:07:18;92015.69;;;-145.37;77.99
13486;BME280;6815;59.336;17.998;2024-01-06T01:09:43;92033.84;;;-145.37;78.24
13486;BME280;6815;59.336;17.998;2024-01-06T01:12:09;92050.00;;;-145.37;78.52
13486;BME280;6815;59.336;17.998;2024-01-06T01:14:34;92054.03;;;-145.37;78.49
13486;BME280;6815;59.336;17.998;2024-01-06T01:17:00;92039.91;;;-145.37;78.80
13486;BME280;6815;59.336;17.998;2024-01-06T01:19:25;92104.53;;;-145.37;78.46
13486;BME280;6815;59.336;17.998;2024-01-06T01:21:51;92090.41;;;-145.37;78.94
13486;BME280;6815;59.336;17.998;2024-01-06T01:24:21;91969.22;;;-145.37;78.07
13486;BME280;6815;59.336;17.998;2024-01-06T01:26:47;91997.50;;;-145.37;78.17
13486;BME280;6815;59.336;17.998;2024-01-06T01:29:12;92090.41;;;-145.37;78.34
13486;BME280;6815;59.336;17.998;2024-01-06T01:31:37;92108.56;;;-145.37;79.24
13486;BME280;6815;59.336;17.998;2024-01-06T01:34:03;92092.41;;;-145.37;78.42
13486;BME280;6815;59.336;17.998;2024-01-06T01:36:28;92094.44;;;-145.37;77.82
13486;BME280;6815;59.336;17.998;2024-01-06T01:38:54;92013.66;;;-145.37;78.23
13486;BME280;6815;59.336;17.998;2024-01-06T01:41:19;92114.63;;;-145.37;78.46
13486;BME280;6815;59.336;17.998;2024-01-06T01:43:45;92124.72;;;-145.37;78.40
13486;BME280;6815;59.336;17.998;2024-01-06T01:46:11;92050.00;;;-145.37;78.37
13486;BME280;6815;59.336;17.998;2024-01-06T01:48:37;92090.41;;;-145.37;77.91
13486;BME280;6815;59.336;17.998;2024-01-06T01:51:03;92054.03;;;-145.37;78.73
13486;BME280;6815;59.336;17.998;2024-01-06T01:53:30;91819.78;;;-145.37;79.15
13486;BME280;6815;59.336;17.998;2024-01-06T01:55:57;92094.44;;;-145.37;79.00
13486;BME280;6815;59.336;17.998;2024-01-06T01:58:23;92096.47;;;-145.37;78.54
13486;BME280;6815;59.336;17.998;2024-01-06T02:00:48;92011.63;;;-145.37;78.32
13486;BME280;6815;59.336;17.998;2024-01-06T02:03:14;92138.88;;;-145.37;78.35
13486;BME280;6815;59.336;17.998;2024-01-06T02:05:41;92094.44;;;-145.37;78.76
13486;BME280;6815;59.336;17.998;2024-01-06T02:08:06;92029.81;;;-145.37;78.58
13486;BME280;6815;59.336;17.998;2024-01-06T02:10:31;91993.47;;;-145.37;78.86
13486;BME280;6815;59.336;17.998;2024-01-06T02:12:57;92092.41;;;-145.37;78.85
13486;BME280;6815;59.336;17.998;2024-01-06T02:15:31;92039.91;;;-145.37;78.40
13486;BME280;6815;59.336;17.998;2024-01-06T02:17:57;92062.13;;;-145.37;78.65
13486;BME280;6815;59.336;17.998;2024-01-06T02:20:24;92043.94;;;-145.37;78.65
13486;BME280;6815;59.336;17.998;2024-01-06T02:22:50;92076.25;;;-145.37;78.92
13486;BME280;6815;59.336;17.998;2024-01-06T02:25:16;92021.72;;;-145.37;78.46
13486;BME280;6815;59.336;17.998;2024-01-06T02:27:43;92029.81;;;-145.37;79.51
13486;BME280;6815;59.336;17.998;2024-01-06T02:30:09;92048.00;;;-145.37;79.04
13486;BME280;6815;59.336;17.998;2024-01-06T02:32:34;92106.56;;;-145.37;79.34
13486;BME280;6815;59.336;17.998;2024-01-06T02:35:00;92056.06;;;-145.37;78.87
13486;BME280;6815;59.336;17.998;2024-01-06T02:37:25;91977.31;;;-145.37;79.38
13486;BME280;6815;59.336;17.998;2024-01-06T02:39:52;92090.41;;;-145.37;78.68
13486;BME280;6815;59.336;17.998;2024-01-06T02:42:18;92076.25;;;-145.37;79.15
13486;BME280;6815;59.336;17.998;2024-01-06T02:44:44;92037.88;;;-145.37;79.03
13486;BME280;6815;59.336;17.998;2024-01-06T02:47:10;92062.13;;;-145.37;79.26
13486;BME280;6815;59.336;17.998;2024-01-06T02:49:35;92058.09;;;-145.37;79.88
13486;BME280;6815;59.336;17.998;2024-01-06T02:52:01;92199.47;;;-145.37;79.80
13486;BME280;6815;59.336;17.998;2024-01-06T02:54:26;92092.41;;;-145.37;79.86
13486;BME280;6815;59.336;17.998;2024-01-06T02:56:52;92066.16;;;-145.37;80.24
13486;BME280;6815;59.336;17.998;2024-01-06T02:59:17;92060.09;;;-145.37;79.74
13486;BME280;6815;59.336;17.998;2024-01-06T03:01:43;91983.38;;;-145.37;80.10
13486;BME280;6815;59.336;17.998;2024-01-06T03:04:08;92084.34;;;-145.37;80.30
13486;BME280;6815;59.336;17.998;2024-01-06T03:06:34;92045.97;;;-145.37;79.42
13486;BME280;6815;59.336;17.998;2024-01-06T03:08:59;92068.19;;;-145.37;80.02
13486;BME280;6815;59.336;17.998;2024-01-06T03:11:25;92082.31;;;-145.37;79.95
13486;BME280;6815;59.336;17.998;2024-01-06T03:13:51;92072.22;;;-145.37;80.22
13486;BME280;6815;59.336;17.998;2024-01-06T03:16:16;92098.47;;;-145.37;80.01
13486;BME280;6815;59.336;17.998;2024-01-06T03:18:41;92001.53;;;-145.37;80.34
13486;BME280;6815;59.336;17.998;2024-01-06T03:21:17;92110.59;;;-145.37;80.15
13486;BME280;6815;59.336;17.998;2024-01-06T03:23:43;92092.41;;;-145.37;80.09
13486;BME280;6815;59.336;17.998;2024-01-06T03:26:08;92215.63;;;-145.37;80.45
13486;BME280;6815;59.336;17.998;2024-01-06T03:28:34;91852.09;;;-145.37;80.56
13486;BME280;6815;59.336;17.998;2024-01-06T03:30:59;91906.63;;;-145.37;80.76
13486;BME280;6815;59.336;17.998;2024-01-06T03:33:25;92094.44;;;-145.37;80.11
13486;BME280;6815;59.336;17.998;2024-01-06T03:35:50;92062.13;;;-145.37;80.00
13486;BME280;6815;59.336;17.998;2024-01-06T03:38:16;92062.13;;;-145.37;79.90
13486;BME280;6815;59.336;17.998;2024-01-06T03:40:41;92041.94;;;-145.37;79.81
13486;BME280;6815;59.336;17.998;2024-01-06T03:43:07;91797.56;;;-145.37;79.69
13486;BME280;6815;59.336;17.998;2024-01-06T03:45:32;92076.25;;;-145.37;80.22
13486;BME280;6815;59.336;17.998;2024-01-06T03:47:58;92090.41;;;-145.37;81.08
13486;BME280;6815;59.336;17.998;2024-01-06T03:50:23;91969.22;;;-145.37;80.99
13486;BME280;6815;59.336;17.998;2024-01-06T03:52:48;92068.19;;;-145.37;80.37
13486;BME280;6815;59.336;17.998;2024-01-06T03:55:14;91957.09;;;-145.37;80.46
13486;BME280;6815;59.336;17.998;2024-01-06T03:57:41;92140.88;;;-145.37;80.58
13486;BME280;6815;59.336;17.998;2024-01-06T04:00:07;92072.22;;;-145.37;80.29
13486;BME280;6815;59.336;17.998;2024-01-06T04:02:33;92272.16;;;-145.37;80.05
13486;BME280;6815;59.336;17.998;2024-01-06T04:04:59;91884.41;;;-145.37;80.90
13486;BME280;6815;59.336;17.998;2024-01-06T04:07:24;92062.13;;;-145.37;80.71
13486;BME280;6815;59.336;17.998;2024-01-06T04:09:50;92066.16;;;-145.37;80.62
13486;BME280;6815;59.336;17.998;2024-01-06T04:12:15;92118.69;;;-145.37;80.05
13486;BME280;6815;59.336;17.998;2024-01-06T04:14:41;92045.97;;;-145.37;80.64
13486;BME280;6815;59.336;17.998;2024-01-06T04:17:06;92550.91;;;-145.37;80.83
13486;BME280;6815;59.336;17.998;2024-01-06T04:19:31;92052.03;;;-145.37;80.71
13486;BME280;6815;59.336;17.998;2024-01-06T04:21:57;92078.28;;;-145.37;81.10
13486;BME280;6815;59.336;17.998;2024-01-06T04:24:22;92098.47;;;-145.37;80.89
13486;BME280;6815;59.336;17.998;2024-01-06T04:26:49;92086.38;;;-145.37;81.41
13486;BME280;6815;59.336;17.998;2024-01-06T04:29:14;92086.38;;;-145.37;80.27
13486;BME280;6815;59.336;17.998;2024-01-06T04:31:41;91985.38;;;-145.37;80.79
13486;BME280;6815;59.336;17.998;2024-01-06T04:34:06;92001.53;;;-145.37;80.57
13486;BME280;6815;59.336;17.998;2024-01-06T04:36:32;92088.38;;;-145.37;80.65
13486;BME280;6815;59.336;17.998;2024-01-06T04:38:57;92480.22;;;-145.37;80.96
13486;BME280;6815;59.336;17.998;2024-01-06T04:41:22;92086.38;;;-145.37;80.40
13486;BME280;6815;59.336;17.998;2024-01-06T04:43:48;92348.91;;;-145.37;81.10
13486;BME280;6815;59.336;17.998;2024-01-06T04:46:13;91973.25;;;-145.37;80.96
13486;BME280;6815;59.336;17.998;2024-01-06T04:48:41;91997.50;;;-145.37;81.19
13486;BME280;6815;59.336;17.998;2024-01-06T04:51:06;92056.06;;;-145.37;80.75
13486;BME280;6815;59.336;17.998;2024-01-06T04:53:35;92072.22;;;-145.37;80.67
13486;BME280;6815;59.336;17.998;2024-01-06T04:56:01;92094.44;;;-145.37;81.41
13486;BME280;6815;59.336;17.998;2024-01-06T04:58:27;91942.97;;;-145.37;81.46
13486;BME280;6815;59.336;17.998;2024-01-06T05:00:52;92088.38;;;-145.37;81.41
13486;BME280;6815;59.336;17.998;2024-01-06T05:03:18;91973.25;;;-145.37;80.92
13486;BME280;6815;59.336;17.998;2024-01-06T05:05:43;92072.22;;;-145.37;80.91
13486;BME280;6815;59.336;17.998;2024-01-06T05:08:09;92078.28;;;-145.37;80.49
13486;BME280;6815;59.336;17.998;2024-01-06T05:10:34;92058.09;;;-145.37;81.05
13486;BME280;6815;59.336;17.998;2024-01-06T05:13:00;92084.34;;;-145.37;80.82
13486;BME280;6815;59.336;17.998;2024-01-06T05:15:25;92096.47;;;-145.37;80.87
13486;BME280;6815;59.336;17.998;2024-01-06T05:17:51;92106.56;;;-145.37;81.11
13486;BME280;6815;59.336;17.998;2024-01-06T05:20:17;92072.22;;;-145.37;81.36
13486;BME280;6815;59.336;17.998;2024-01-06T05:22:42;92773.09;;;-145.37;81.14
13486;BME280;6815;59.336;17.998;2024-01-06T05:25:08;92050.00;;;-145.37;80.95
13486;BME280;6815;59.336;17.998;2024-01-06T05:27:34;92260.06;;;-145.37;81.16
13486;BME280;6815;59.336;17.998;2024-01-06T05:29:59;92100.50;;;-145.37;80.85
13486;BME280;6815;59.336;17.998;2024-01-06T05:32:25;92078.28;;;-145.37;80.26
13486;BME280;6815;59.336;17.998;2024-01-06T05:34:50;92359.03;;;-145.37;79.90
13486;BME280;6815;59.336;17.998;2024-01-06T05:37:16;91957.09;;;-145.37;79.72
13486;BME280;6815;59.336;17.998;2024-01-06T05:39:41;92066.16;;;-145.37;80.64
13486;BME280;6815;59.336;17.998;2024-01-06T05:42:09;92056.06;;;-145.37;81.07
13486;BME280;6815;59.336;17.998;2024-01-06T05:44:37;92108.56;;;-145.37;80.69
13486;BME280;6815;59.336;17.998;2024-01-06T05:47:03;92098.47;;;-145.37;80.87
13486;BME280;6815;59.336;17.998;2024-01-06T05:49:29;92088.38;;;-145.37;80.58
13486;BME280;6815;59.336;17.998;2024-01-06T05:51:54;91989.41;;;-145.37;80.58
13486;BME280;6815;59.336;17.998;2024-01-06T05:54:20;92050.00;;;-145.37;80.82
13486;BME280;6815;59.336;17.998;2024-01-06T05:56:45;92104.53;;;-145.37;80.06
13486;BME280;6815;59.336;17.998;2024-01-06T05:59:10;92058.09;;;-145.37;81.08
13486;BME280;6815;59.336;17.998;2024-01-06T06:01:36;92005.56;;;-145.37;80.20
13486;BME280;6815;59.336;17.998;2024-01-06T06:04:01;92072.22;;;-145.37;80.48
13486;BME280;6815;59.336;17.998;2024-01-06T06:06:27;92092.41;;;-145.37;80.72
13486;BME280;6815;59.336;17.998;2024-01-06T06:08:53;92120.69;;;-145.37;80.48
13486;BME280;6815;59.336;17.998;2024-01-06T06:11:18;92754.91;;;-145.37;80.33
13486;BME280;6815;59.336;17.998;2024-01-06T06:13:44;92056.06;;;-145.37;80.36
13486;BME280;6815;59.336;17.998;2024-01-06T06:16:10;92033.84;;;-145.37;80.39
13486;BME280;6815;59.336;17.998;2024-01-06T06:18:38;92072.22;;;-145.37;80.24
13486;BME280;6815;59.336;17.998;2024-01-06T06:21:03;92090.41;;;-145.37;80.37
13486;BME280;6815;59.336;17.998;2024-01-06T06:23:32;92056.06;;;-145.37;80.08
13486;BME280;6815;59.336;17.998;2024-01-06T06:25:57;92114.63;;;-145.37;80.38
13486;BME280;6815;59.336;17.998;2024-01-06T06:28:23;92096.47;;;-145.37;80.76
13486;BME280;6815;59.336;17.998;2024-01-06T06:30:48;92080.31;;;-145.37;80.87
13486;BME280;6815;59.336;17.998;2024-01-06T06:33:14;92078.28;;;-145.37;80.36
13486;BME280;6815;59.336;17.998;2024-01-06T06:35:40;92060.09;;;-145.37;80.33
13486;BME280;6815;59.336;17.998;2024-01-06T06:38:05;92009.63;;;-145.37;80.37
13486;BME280;6815;59.336;17.998;2024-01-06T06:40:31;92217.63;;;-145.37;80.53
13486;BME280;6815;59.336;17.998;2024-01-06T06:42:56;92086.38;;;-145.37;80.92
13486;BME280;6815;59.336;17.998;2024-01-06T06:45:22;92078.28;;;-145.37;80.59
13486;BME280;6815;59.336;17.998;2024-01-06T06:47:51;92045.97;;;-145.37;80.80
13486;BME280;6815;59.336;17.998;2024-01-06T06:50:17;91961.16;;;-145.37;80.35
13486;BME280;6815;59.336;17.998;2024-01-06T06:52:43;92066.16;;;-145.37;80.26
13486;BME280;6815;59.336;17.998;2024-01-06T06:55:09;92086.38;;;-145.37;79.76
13486;BME280;6815;59.336;17.998;2024-01-06T06:57:35;92076.25;;;-145.37;79.95
13486;BME280;6815;59.336;17.998;2024-01-06T07:00:01;92110.59;;;-145.37;80.12
13486;BME280;6815;59.336;17.998;2024-01-06T07:02:27;92027.78;;;-145.37;79.53
13486;BME280;6815;59.336;17.998;2024-01-06T07:04:52;92070.19;;;-145.37;78.91
13486;BME280;6815;59.336;17.998;2024-01-06T07:07:19;92096.47;;;-145.37;79.43
13486;BME280;6815;59.336;17.998;2024-01-06T07:09:44;92096.47;;;-145.37;79.49
13486;BME280;6815;59.336;17.998;2024-01-06T07:12:10;92084.34;;;-145.37;79.35
13486;BME280;6815;59.336;17.998;2024-01-06T07:14:35;91987.41;;;-145.37;79.92
13486;BME280;6815;59.336;17.998;2024-01-06T07:17:02;92056.06;;;-145.37;79.45
13486;BME280;6815;59.336;17.998;2024-01-06T07:19:29;92106.56;;;-145.37;79.60
13486;BME280;6815;59.336;17.998;2024-01-06T07:21:55;92098.47;;;-145.37;79.21
13486;BME280;6815;59.336;17.998;2024-01-06T07:24:20;92041.94;;;-145.37;78.73
13486;BME280;6815;59.336;17.998;2024-01-06T07:26:46;92094.44;;;-145.37;78.36
13486;BME280;6815;59.336;17.998;2024-01-06T07:29:11;92076.25;;;-145.37;79.23
13486;BME280;6815;59.336;17.998;2024-01-06T07:31:37;92096.47;;;-145.37;79.06
13486;BME280;6815;59.336;17.998;2024-01-06T07:34:02;92066.16;;;-145.37;78.90
13486;BME280;6815;59.336;17.998;2024-01-06T07:36:28;92050.00;;;-145.37;78.69
13486;BME280;6815;59.336;17.998;2024-01-06T07:38:53;92043.94;;;-145.37;78.46
13486;BME280;6815;59.336;17.998;2024-01-06T07:41:20;92106.56;;;-145.37;78.69
13486;BME280;6815;59.336;17.998;2024-01-06T07:43:45;92064.16;;;-145.37;78.67
13486;BME280;6815;59.336;17.998;2024-01-06T07:46:10;92104.53;;;-145.37;78.04
13486;BME280;6815;59.336;17.998;2024-01-06T07:48:36;92070.19;;;-145.37;78.38
13486;BME280;6815;59.336;17.998;2024-01-06T07:51:02;92056.06;;;-145.37;78.85
13486;BME280;6815;59.336;17.998;2024-01-06T07:53:28;92288.31;;;-145.37;79.07
13486;BME280;6815;59.336;17.998;2024-01-06T07:55:54;91955.09;;;-145.37;78.95
13486;BME280;6815;59.336;17.998;2024-01-06T07:58:20;92466.06;;;-145.37;78.69
13486;BME280;6815;59.336;17.998;2024-01-06T08:00:47;92106.56;;;-145.37;79.06
13486;BME280;6815;59.336;17.998;2024-01-06T08:03:12;92021.72;;;-145.37;79.10
13486;BME280;6815;59.336;17.998;2024-01-06T08:05:38;92015.69;;;-145.37;79.18
13486;BME280;6815;59.336;17.998;2024-01-06T08:08:04;92080.31;;;-145.37;79.13
13486;BME280;6815;59.336;17.998;2024-01-06T08:10:30;91957.09;;;-145.37;79.45
13486;BME280;6815;59.336;17.998;2024-01-06T08:12:56;92104.53;;;-145.37;79.32
13486;BME280;6815;59.336;17.998;2024-01-06T08:15:22;92041.94;;;-145.37;78.78
13486;BME280;6815;59.336;17.998;2024-01-06T08:17:47;92066.16;;;-145.37;78.81
13486;BME280;6815;59.336;17.998;2024-01-06T08:20:13;92672.09;;;-145.37;78.52
13486;BME280;6815;59.336;17.998;2024-01-06T08:22:38;92082.31;;;-145.37;79.13
13486;BME280;6815;59.336;17.998;2024-01-06T08:25:04;91882.38;;;-145.37;79.21
13486;BME280;6815;59.336;17.998;2024-01-06T08:27:31;91938.94;;;-145.37;78.85
13486;BME280;6815;59.336;17.998;2024-01-06T08:29:57;92088.38;;;-145.37;78.67
13486;BME280;6815;59.336;17.998;2024-01-06T08:32:22;92082.31;;;-145.37;78.68
13486;BME280;6815;59.336;17.998;2024-01-06T08:34:48;92078.28;;;-145.37;79.63
13486;BME280;6815;59.336;17.998;2024-01-06T08:37:13;92090.41;;;-145.37;79.04
13486;BME280;6815;59.336;17.998;2024-01-06T08:39:39;92108.56;;;-145.37;79.15
13486;BME280;6815;59.336;17.998;2024-01-06T08:42:05;92108.56;;;-145.37;79.38
13486;BME280;6815;59.336;17.998;2024-01-06T08:44:30;92102.53;;;-145.37;78.85
13486;BME280;6815;59.336;17.998;2024-01-06T08:46:56;91959.13;;;-145.37;78.68
13486;BME280;6815;59.336;17.998;2024-01-06T08:49:21;92092.41;;;-145.37;78.99
13486;BME280;6815;59.336;17.998;2024-01-06T08:51:47;92104.53;;;-145.37;78.62
13486;BME280;6815;59.336;17.998;2024-01-06T08:54:12;91926.81;;;-145.37;79.32
13486;BME280;6815;59.336;17.998;2024-01-06T08:56:38;92058.09;;;-145.37;80.09
13486;BME280;6815;59.336;17.998;2024-01-06T08:59:04;92062.13;;;-145.37;79.96
13486;BME280;6815;59.336;17.998;2024-01-06T09:01:29;92080.31;;;-145.37;79.73
13486;BME280;6815;59.336;17.998;2024-01-06T09:03:56;92094.44;;;-145.37;78.89
13486;BME280;6815;59.336;17.998;2024-01-06T09:06:23;92064.16;;;-145.37;78.78
13486;BME280;6815;59.336;17.998;2024-01-06T09:08:48;91975.28;;;-145.37;78.97
13486;BME280;6815;59.336;17.998;2024-01-06T09:11:14;92082.31;;;-145.37;78.57
13486;BME280;6815;59.336;17.998;2024-01-06T09:13:40;92110.59;;;-145.37;78.64
13486;BME280;6815;59.336;17.998;2024-01-06T09:16:05;92019.72;;;-145.37;78.44
13486;BME280;6815;59.336;17.998;2024-01-06T09:18:31;92114.63;;;-145.37;78.84
13486;BME280;6815;59.336;17.998;2024-01-06T09:20:57;92011.63;;;-145.37;78.46
13486;BME280;6815;59.336;17.998;2024-01-06T09:23:22;92092.41;;;-145.37;78.55
13486;BME280;6815;59.336;17.998;2024-01-06T09:25:48;92084.34;;;-145.37;77.89
13486;BME280;6815;59.336;17.998;2024-01-06T09:28:17;92045.97;;;-145.37;78.13
13486;BME280;6815;59.336;17.998;2024-01-06T09:30:43;91751.13;;;-145.37;77.56
13486;BME280;6815;59.336;17.998;2024-01-06T09:33:09;91949.03;;;-145.37;78.40
13486;BME280;6815;59.336;17.998;2024-01-06T09:35:34;92132.81;;;-145.37;77.92
13486;BME280;6815;59.336;17.998;2024-01-06T09:38:00;92116.66;;;-145.37;77.59
13486;BME280;6815;59.336;17.998;2024-01-06T09:40:26;92023.75;;;-145.37;78.28
13486;BME280;6815;59.336;17.998;2024-01-06T09:42:51;92112.63;;;-145.37;78.09
13486;BME280;6815;59.336;17.998;2024-01-06T09:45:19;92094.44;;;-145.37;78.48
13486;BME280;6815;59.336;17.998;2024-01-06T09:47:49;92058.09;;;-145.37;78.23
13486;BME280;6815;59.336;17.998;2024-01-06T09:50:18;92070.19;;;-145.37;77.74
13486;BME280;6815;59.336;17.998;2024-01-06T09:52:45;91977.31;;;-145.37;78.43
13486;BME280;6815;59.336;17.998;2024-01-06T09:55:25;92058.09;;;-145.37;77.56
13486;BME280;6815;59.336;17.998;2024-01-06T09:57:54;92037.88;;;-145.37;77.73
13486;BME280;6815;59.336;17.998;2024-01-06T10:00:20;92082.31;;;-145.37;78.42
13486;BME280;6815;59.336;17.998;2024-01-06T10:02:47;92056.06;;;-145.37;78.23
13486;BME280;6815;59.336;17.998;2024-01-06T10:05:15;92090.41;;;-145.37;78.62
13486;BME280;6815;59.336;17.998;2024-01-06T10:07:42;92060.09;;;-145.37;78.29
13486;BME280;6815;59.336;17.998;2024-01-06T10:10:11;92019.72;;;-145.37;77.54
13486;BME280;6815;59.336;17.998;2024-01-06T10:12:40;92070.19;;;-145.37;78.37
13486;BME280;6815;59.336;17.998;2024-01-06T10:15:08;92043.94;;;-145.37;77.85
13486;BME280;6815;59.336;17.998;2024-01-06T10:17:37;92098.47;;;-145.37;78.71
13486;BME280;6815;59.336;17.998;2024-01-06T10:20:07;92096.47;;;-145.37;78.65
13486;BME280;6815;59.336;17.998;2024-01-06T10:22:35;92041.94;;;-145.37;79.20
13486;BME280;6815;59.336;17.998;2024-01-06T10:25:00;92284.28;;;-145.37;79.29
13486;BME280;6815;59.336;17.998;2024-01-06T10:27:26;91987.41;;;-145.37;78.92
13486;BME280;6815;59.336;17.998;2024-01-06T10:29:51;92082.31;;;-145.37;78.27
13486;BME280;6815;59.336;17.998;2024-01-06T10:32:17;91977.31;;;-145.37;78.11
13486;BME280;6815;59.336;17.998;2024-01-06T10:34:43;92068.19;;;-145.37;78.56
13486;BME280;6815;59.336;17.998;2024-01-06T10:37:10;92052.03;;;-145.37;79.04
13486;BME280;6815;59.336;17.998;2024-01-06T10:39:36;92048.00;;;-145.37;77.84
13486;BME280;6815;59.336;17.998;2024-01-06T10:42:03;92072.22;;;-145.37;77.02
13486;BME280;6815;59.336;17.998;2024-01-06T10:44:31;92068.19;;;-145.37;77.73
13486;BME280;6815;59.336;17.998;2024-01-06T10:46:57;91829.88;;;-145.37;77.29
13486;BME280;6815;59.336;17.998;2024-01-06T10:49:24;92090.41;;;-145.37;76.65
13486;BME280;6815;59.336;17.998;2024-01-06T10:51:51;92082.31;;;-145.37;76.63
13486;BME280;6815;59.336;17.998;2024-01-06T10:54:17;92062.13;;;-145.37;76.99
13486;BME280;6815;59.336;17.998;2024-01-06T10:56:45;91961.16;;;-145.37;77.55
13486;BME280;6815;59.336;17.998;2024-01-06T10:59:13;92098.47;;;-145.37;76.68
13486;BME280;6815;59.336;17.998;2024-01-06T11:01:39;92013.66;;;-145.37;77.53
13486;BME280;6815;59.336;17.998;2024-01-06T11:04:06;92017.69;;;-145.37;77.73
13486;BME280;6815;59.336;17.998;2024-01-06T11:06:33;92096.47;;;-145.37;77.66
13486;BME280;6815;59.336;17.998;2024-01-06T11:11:35;92019.72;;;-145.37;76.82
13486;BME280;6815;59.336;17.998;2024-01-06T11:16:48;92007.59;;;-145.37;76.51
13486;BME280;6815;59.336;17.998;2024-01-06T11:24:51;92100.50;;;-145.37;76.90
13486;BME280;6815;59.336;17.998;2024-01-06T11:27:19;92025.78;;;-145.37;77.05
13486;BME280;6815;59.336;17.998;2024-01-06T11:29:45;92698.34;;;-145.37;76.98
13486;BME280;6815;59.336;17.998;2024-01-06T11:34:54;92090.41;;;-145.37;76.63
13486;BME280;6815;59.336;17.998;2024-01-06T11:42:48;91904.59;;;-145.37;75.58
13486;BME280;6815;59.336;17.998;2024-01-06T11:45:21;92090.41;;;-145.37;75.48
13486;BME280;6815;59.336;17.998;2024-01-06T11:47:48;92048.00;;;-145.37;75.10
13486;BME280;6815;59.336;17.998;2024-01-06T11:50:14;92029.81;;;-145.37;75.58
13486;BME280;6815;59.336;17.998;2024-01-06T11:52:39;92054.03;;;-145.37;74.94
13486;BME280;6815;59.336;17.998;2024-01-06T11:55:05;92019.72;;;-145.37;74.49
13486;BME280;6815;59.336;17.998;2024-01-06T11:57:34;92086.38;;;-145.37;75.29
13486;BME280;6815;59.336;17.998;2024-01-06T11:59:59;92011.63;;;-145.37;75.38
13486;BME280;6815;59.336;17.998;2024-01-06T12:02:25;92033.84;;;-145.37;74.66
13486;BME280;6815;59.336;17.998;2024-01-06T12:04:52;92118.69;;;-145.37;75.43
13486;BME280;6815;59.336;17.998;2024-01-06T12:07:19;91967.19;;;-145.37;75.50
13486;BME280;6815;59.336;17.998;2024-01-06T12:09:49;92021.72;;;-145.37;75.11
13486;BME280;6815;59.336;17.998;2024-01-06T12:12:18;92043.94;;;-145.37;74.98
13486;BME280;6815;59.336;17.998;2024-01-06T12:14:44;92054.03;;;-145.37;74.99
13486;BME280;6815;59.336;17.998;2024-01-06T12:17:11;91819.78;;;-145.37;74.45
13486;BME280;6815;59.336;17.998;2024-01-06T12:19:39;92037.88;;;-145.37;74.82
13486;BME280;6815;59.336;17.998;2024-01-06T12:22:05;92066.16;;;-145.37;74.36
13486;BME280;6815;59.336;17.998;2024-01-06T12:24:31;92102.53;;;-145.37;74.93
13486;BME280;6815;59.336;17.998;2024-01-06T12:26:57;92104.53;;;-145.37;75.26
13486;BME280;6815;59.336;17.998;2024-01-06T12:29:26;92050.00;;;-145.37;75.03
13486;BME280;6815;59.336;17.998;2024-01-06T12:31:53;92256.00;;;-145.37;74.76
13486;BME280;6815;59.336;17.998;2024-01-06T12:34:18;92009.63;;;-145.37;75.29
13486;BME280;6815;59.336;17.998;2024-01-06T12:36:44;92082.31;;;-145.37;74.56
13486;BME280;6815;59.336;17.998;2024-01-06T12:39:13;92086.38;;;-145.37;74.12
13486;BME280;6815;59.336;17.998;2024-01-06T12:41:42;92078.28;;;-145.37;74.45
13486;BME280;6815;59.336;17.998;2024-01-06T12:44:08;92039.91;;;-145.37;74.08
13486;BME280;6815;59.336;17.998;2024-01-06T12:46:34;92058.09;;;-145.37;74.69
13486;BME280;6815;59.336;17.998;2024-01-06T12:49:00;92066.16;;;-145.37;74.16
13486;BME280;6815;59.336;17.998;2024-01-06T12:51:25;92037.88;;;-145.37;74.41
13486;BME280;6815;59.336;17.998;2024-01-06T12:53:51;92080.31;;;-145.37;74.21